sensor_id;sensor_type;location;lat;lon;timestamp;P1;durP1;ratioP1;P2;durP2;ratioP2
830;SDS011;397;50.564;7.272;2023-01-20T00:01:37;13.57;;;9.97;;
830;SDS011;397;50.564;7.272;2023-01-20T00:04:08;11.03;;;9.03;;
830;SDS011;397;50.564;7.272;2023-01-20T00:06:35;9.77;;;8.70;;
830;SDS011;397;50.564;7.272;2023-01-20T00:09:03;11.20;;;10.00;;
830;SDS011;397;50.564;7.272;2023-01-20T00:11:31;19.53;;;11.03;;
830;SDS011;397;50.564;7.272;2023-01-20T00:14:00;13.20;;;9.07;;
830;SDS011;397;50.564;7.272;2023-01-20T00:16:29;11.73;;;10.17;;
830;SDS011;397;50.564;7.272;2023-01-20T00:18:57;14.37;;;10.00;;
830;SDS011;397;50.564;7.272;2023-01-20T00:21:24;11.50;;;8.87;;
830;SDS011;397;50.564;7.272;2023-01-20T00:23:52;12.17;;;10.60;;
830;SDS011;397;50.564;7.272;2023-01-20T00:26:20;11.33;;;9.20;;
830;SDS011;397;50.564;7.272;2023-01-20T00:28:52;10.57;;;9.03;;
830;SDS011;397;50.564;7.272;2023-01-20T00:31:23;12.47;;;9.10;;
830;SDS011;397;50.564;7.272;2023-01-20T00:33:54;12.47;;;8.27;;
830;SDS011;397;50.564;7.272;2023-01-20T00:36:23;20.10;;;10.27;;
830;SDS011;397;50.564;7.272;2023-01-20T00:38:52;9.50;;;8.00;;
830;SDS011;397;50.564;7.272;2023-01-20T00:41:19;11.17;;;8.63;;
830;SDS011;397;50.564;7.272;2023-01-20T00:43:47;12.10;;;8.67;;
830;SDS011;397;50.564;7.272;2023-01-20T00:46:15;12.93;;;10.33;;
830;SDS011;397;50.564;7.272;2023-01-20T00:48:42;15.33;;;10.80;;
830;SDS011;397;50.564;7.272;2023-01-20T00:51:10;14.20;;;8.33;;
830;SDS011;397;50.564;7.272;2023-01-20T00:53:38;12.53;;;9.80;;
830;SDS011;397;50.564;7.272;2023-01-20T00:56:05;12.30;;;8.60;;
830;SDS011;397;50.564;7.272;2023-01-20T00:58:33;13.30;;;10.03;;
830;SDS011;397;50.564;7.272;2023-01-20T01:01:01;11.03;;;8.90;;
830;SDS011;397;50.564;7.272;2023-01-20T01:03:29;11.10;;;9.97;;
830;SDS011;397;50.564;7.272;2023-01-20T01:06:06;12.67;;;9.43;;
830;SDS011;397;50.564;7.272;2023-01-20T01:08:35;11.70;;;8.93;;
830;SDS011;397;50.564;7.272;2023-01-20T01:11:03;13.27;;;8.73;;
830;SDS011;397;50.564;7.272;2023-01-20T01:13:31;14.40;;;10.17;;
830;SDS011;397;50.564;7.272;2023-01-20T01:15:58;11.30;;;9.60;;
830;SDS011;397;50.564;7.272;2023-01-20T01:18:26;10.97;;;9.67;;
830;SDS011;397;50.564;7.272;2023-01-20T01:20:54;13.20;;;8.23;;
830;SDS011;397;50.564;7.272;2023-01-20T01:23:22;13.90;;;9.10;;
830;SDS011;397;50.564;7.272;2023-01-20T01:25:49;10.53;;;7.90;;
830;SDS011;397;50.564;7.272;2023-01-20T01:28:17;10.60;;;8.80;;
830;SDS011;397;50.564;7.272;2023-01-20T01:30:44;10.83;;;7.63;;
830;SDS011;397;50.564;7.272;2023-01-20T01:33:12;14.50;;;8.70;;
830;SDS011;397;50.564;7.272;2023-01-20T01:35:39;10.37;;;9.17;;
830;SDS011;397;50.564;7.272;2023-01-20T01:38:07;9.40;;;7.97;;
830;SDS011;397;50.564;7.272;2023-01-20T01:40:34;12.07;;;9.07;;
830;SDS011;397;50.564;7.272;2023-01-20T01:43:02;13.23;;;8.83;;
830;SDS011;397;50.564;7.272;2023-01-20T01:45:31;16.77;;;8.67;;
830;SDS011;397;50.564;7.272;2023-01-20T01:48:00;10.30;;;8.93;;
830;SDS011;397;50.564;7.272;2023-01-20T01:50:35;9.80;;;7.90;;
830;SDS011;397;50.564;7.272;2023-01-20T01:53:00;12.67;;;8.30;;
830;SDS011;397;50.564;7.272;2023-01-20T01:55:28;10.10;;;9.00;;
830;SDS011;397;50.564;7.272;2023-01-20T01:57:58;9.63;;;8.10;;
830;SDS011;397;50.564;7.272;2023-01-20T02:00:27;11.23;;;7.70;;
830;SDS011;397;50.564;7.272;2023-01-20T02:02:55;10.17;;;7.40;;
830;SDS011;397;50.564;7.272;2023-01-20T02:05:23;13.07;;;9.17;;
830;SDS011;397;50.564;7.272;2023-01-20T02:07:52;9.70;;;7.47;;
830;SDS011;397;50.564;7.272;2023-01-20T02:10:20;8.63;;;7.50;;
830;SDS011;397;50.564;7.272;2023-01-20T02:12:48;10.50;;;7.00;;
830;SDS011;397;50.564;7.272;2023-01-20T02:15:17;11.80;;;8.40;;
830;SDS011;397;50.564;7.272;2023-01-20T02:31:59;9.90;;;7.83;;
830;SDS011;397;50.564;7.272;2023-01-20T02:37:25;9.90;;;8.40;;
830;SDS011;397;50.564;7.272;2023-01-20T02:39:59;11.27;;;8.57;;
830;SDS011;397;50.564;7.272;2023-01-20T02:42:46;10.53;;;8.83;;
830;SDS011;397;50.564;7.272;2023-01-20T02:47:53;10.57;;;8.23;;
830;SDS011;397;50.564;7.272;2023-01-20T02:50:28;14.00;;;9.20;;
830;SDS011;397;50.564;7.272;2023-01-20T02:52:56;15.03;;;10.80;;
830;SDS011;397;50.564;7.272;2023-01-20T02:55:28;11.10;;;8.60;;
830;SDS011;397;50.564;7.272;2023-01-20T02:57:59;10.80;;;8.23;;
830;SDS011;397;50.564;7.272;2023-01-20T03:00:31;10.00;;;7.23;;
830;SDS011;397;50.564;7.272;2023-01-20T03:03:05;10.60;;;7.97;;
830;SDS011;397;50.564;7.272;2023-01-20T03:05:35;9.50;;;7.93;;
830;SDS011;397;50.564;7.272;2023-01-20T03:08:05;11.43;;;8.73;;
830;SDS011;397;50.564;7.272;2023-01-20T03:10:35;16.50;;;9.37;;
830;SDS011;397;50.564;7.272;2023-01-20T03:13:15;16.30;;;11.20;;
830;SDS011;397;50.564;7.272;2023-01-20T03:15:47;21.87;;;12.97;;
830;SDS011;397;50.564;7.272;2023-01-20T03:18:11;17.60;;;11.10;;
830;SDS011;397;50.564;7.272;2023-01-20T03:20:39;16.80;;;11.17;;
830;SDS011;397;50.564;7.272;2023-01-20T03:23:07;16.80;;;10.80;;
830;SDS011;397;50.564;7.272;2023-01-20T03:25:34;13.93;;;9.57;;
830;SDS011;397;50.564;7.272;2023-01-20T03:28:03;16.50;;;11.00;;
830;SDS011;397;50.564;7.272;2023-01-20T03:30:31;10.93;;;9.03;;
830;SDS011;397;50.564;7.272;2023-01-20T03:32:59;11.37;;;6.87;;
830;SDS011;397;50.564;7.272;2023-01-20T03:35:27;12.53;;;7.77;;
830;SDS011;397;50.564;7.272;2023-01-20T03:37:55;11.60;;;8.87;;
830;SDS011;397;50.564;7.272;2023-01-20T03:40:27;9.53;;;8.20;;
830;SDS011;397;50.564;7.272;2023-01-20T03:43:08;11.53;;;7.93;;
830;SDS011;397;50.564;7.272;2023-01-20T03:45:52;14.40;;;9.43;;
830;SDS011;397;50.564;7.272;2023-01-20T03:48:22;12.17;;;7.40;;
830;SDS011;397;50.564;7.272;2023-01-20T03:50:52;10.43;;;9.27;;
830;SDS011;397;50.564;7.272;2023-01-20T03:53:29;25.30;;;8.60;;
830;SDS011;397;50.564;7.272;2023-01-20T03:56:06;10.47;;;7.87;;
830;SDS011;397;50.564;7.272;2023-01-20T03:58:49;10.10;;;7.70;;
830;SDS011;397;50.564;7.272;2023-01-20T04:01:22;10.67;;;7.43;;
830;SDS011;397;50.564;7.272;2023-01-20T04:03:51;12.80;;;8.87;;
830;SDS011;397;50.564;7.272;2023-01-20T04:06:20;13.83;;;8.60;;
830;SDS011;397;50.564;7.272;2023-01-20T04:08:52;11.97;;;8.53;;
830;SDS011;397;50.564;7.272;2023-01-20T04:11:21;10.83;;;9.27;;
830;SDS011;397;50.564;7.272;2023-01-20T04:13:49;10.03;;;8.13;;
830;SDS011;397;50.564;7.272;2023-01-20T04:16:17;9.20;;;7.53;;
830;SDS011;397;50.564;7.272;2023-01-20T04:18:47;11.30;;;7.40;;
830;SDS011;397;50.564;7.272;2023-01-20T04:21:38;9.70;;;8.10;;
830;SDS011;397;50.564;7.272;2023-01-20T04:24:09;11.67;;;7.77;;
830;SDS011;397;50.564;7.272;2023-01-20T04:26:47;11.83;;;8.43;;
830;SDS011;397;50.564;7.272;2023-01-20T04:29:14;10.07;;;8.40;;
830;SDS011;397;50.564;7.272;2023-01-20T04:31:41;11.60;;;8.73;;
830;SDS011;397;50.564;7.272;2023-01-20T04:34:14;9.47;;;7.70;;
830;SDS011;397;50.564;7.272;2023-01-20T04:36:40;8.57;;;7.73;;
830;SDS011;397;50.564;7.272;2023-01-20T04:39:08;10.87;;;8.07;;
830;SDS011;397;50.564;7.272;2023-01-20T04:41:35;14.27;;;7.73;;
830;SDS011;397;50.564;7.272;2023-01-20T04:44:03;11.33;;;7.57;;
830;SDS011;397;50.564;7.272;2023-01-20T04:46:30;9.77;;;7.17;;
830;SDS011;397;50.564;7.272;2023-01-20T04:48:58;9.10;;;7.60;;
830;SDS011;397;50.564;7.272;2023-01-20T04:51:25;10.37;;;9.13;;
830;SDS011;397;50.564;7.272;2023-01-20T04:53:56;9.23;;;7.20;;
830;SDS011;397;50.564;7.272;2023-01-20T04:56:24;9.17;;;7.27;;
830;SDS011;397;50.564;7.272;2023-01-20T04:58:52;9.57;;;6.83;;
830;SDS011;397;50.564;7.272;2023-01-20T05:01:19;12.80;;;7.97;;
830;SDS011;397;50.564;7.272;2023-01-20T05:03:47;8.90;;;6.80;;
830;SDS011;397;50.564;7.272;2023-01-20T05:06:15;10.50;;;7.60;;
830;SDS011;397;50.564;7.272;2023-01-20T05:08:43;12.80;;;8.10;;
830;SDS011;397;50.564;7.272;2023-01-20T05:11:11;9.83;;;6.77;;
830;SDS011;397;50.564;7.272;2023-01-20T05:13:38;7.90;;;6.77;;
830;SDS011;397;50.564;7.272;2023-01-20T05:16:06;10.90;;;6.90;;
830;SDS011;397;50.564;7.272;2023-01-20T05:18:34;10.17;;;6.37;;
830;SDS011;397;50.564;7.272;2023-01-20T05:21:02;8.97;;;7.30;;
830;SDS011;397;50.564;7.272;2023-01-20T05:23:32;10.00;;;8.10;;
830;SDS011;397;50.564;7.272;2023-01-20T05:26:00;8.30;;;7.27;;
830;SDS011;397;50.564;7.272;2023-01-20T05:28:28;10.63;;;7.20;;
830;SDS011;397;50.564;7.272;2023-01-20T05:30:55;21.40;;;13.00;;
830;SDS011;397;50.564;7.272;2023-01-20T05:33:23;21.40;;;15.43;;
830;SDS011;397;50.564;7.272;2023-01-20T05:35:50;22.97;;;17.27;;
830;SDS011;397;50.564;7.272;2023-01-20T05:38:18;14.20;;;10.47;;
830;SDS011;397;50.564;7.272;2023-01-20T05:40:45;10.17;;;8.37;;
830;SDS011;397;50.564;7.272;2023-01-20T05:43:12;8.97;;;8.00;;
830;SDS011;397;50.564;7.272;2023-01-20T05:45:40;12.00;;;8.90;;
830;SDS011;397;50.564;7.272;2023-01-20T05:48:07;11.57;;;8.57;;
830;SDS011;397;50.564;7.272;2023-01-20T05:50:35;12.20;;;8.03;;
830;SDS011;397;50.564;7.272;2023-01-20T05:53:02;12.47;;;8.77;;
830;SDS011;397;50.564;7.272;2023-01-20T05:55:30;14.10;;;9.70;;
830;SDS011;397;50.564;7.272;2023-01-20T05:57:59;11.47;;;9.17;;
830;SDS011;397;50.564;7.272;2023-01-20T06:00:27;22.47;;;12.40;;
830;SDS011;397;50.564;7.272;2023-01-20T06:02:55;19.20;;;13.80;;
830;SDS011;397;50.564;7.272;2023-01-20T06:05:23;16.70;;;11.20;;
830;SDS011;397;50.564;7.272;2023-01-20T06:07:53;18.50;;;13.40;;
830;SDS011;397;50.564;7.272;2023-01-20T06:10:21;21.83;;;13.33;;
830;SDS011;397;50.564;7.272;2023-01-20T06:12:55;12.50;;;10.60;;
830;SDS011;397;50.564;7.272;2023-01-20T06:15:23;20.03;;;16.17;;
830;SDS011;397;50.564;7.272;2023-01-20T06:17:51;15.03;;;11.00;;
830;SDS011;397;50.564;7.272;2023-01-20T06:20:20;19.00;;;9.50;;
830;SDS011;397;50.564;7.272;2023-01-20T06:22:48;11.90;;;10.50;;
830;SDS011;397;50.564;7.272;2023-01-20T06:25:17;17.10;;;10.50;;
830;SDS011;397;50.564;7.272;2023-01-20T06:27:44;12.43;;;10.20;;
830;SDS011;397;50.564;7.272;2023-01-20T06:30:12;13.17;;;9.53;;
830;SDS011;397;50.564;7.272;2023-01-20T06:32:39;18.60;;;9.90;;
830;SDS011;397;50.564;7.272;2023-01-20T06:35:07;11.77;;;10.37;;
830;SDS011;397;50.564;7.272;2023-01-20T06:37:35;12.93;;;9.67;;
830;SDS011;397;50.564;7.272;2023-01-20T06:40:02;10.83;;;9.70;;
830;SDS011;397;50.564;7.272;2023-01-20T06:42:30;12.30;;;10.50;;
830;SDS011;397;50.564;7.272;2023-01-20T06:44:58;15.17;;;10.20;;
830;SDS011;397;50.564;7.272;2023-01-20T06:47:25;16.47;;;10.90;;
830;SDS011;397;50.564;7.272;2023-01-20T06:49:53;17.70;;;11.23;;
830;SDS011;397;50.564;7.272;2023-01-20T06:52:20;19.73;;;13.07;;
830;SDS011;397;50.564;7.272;2023-01-20T06:54:48;14.90;;;11.40;;
830;SDS011;397;50.564;7.272;2023-01-20T06:57:15;12.83;;;9.80;;
830;SDS011;397;50.564;7.272;2023-01-20T06:59:44;16.60;;;12.70;;
830;SDS011;397;50.564;7.272;2023-01-20T07:02:11;14.83;;;10.30;;
830;SDS011;397;50.564;7.272;2023-01-20T07:04:39;11.97;;;10.17;;
830;SDS011;397;50.564;7.272;2023-01-20T07:07:09;14.40;;;11.20;;
830;SDS011;397;50.564;7.272;2023-01-20T07:09:39;13.07;;;10.03;;
830;SDS011;397;50.564;7.272;2023-01-20T07:12:06;15.20;;;9.80;;
830;SDS011;397;50.564;7.272;2023-01-20T07:14:34;13.03;;;10.40;;
830;SDS011;397;50.564;7.272;2023-01-20T07:17:01;12.93;;;9.70;;
830;SDS011;397;50.564;7.272;2023-01-20T07:19:30;12.50;;;9.30;;
830;SDS011;397;50.564;7.272;2023-01-20T07:21:58;13.33;;;9.80;;
830;SDS011;397;50.564;7.272;2023-01-20T07:24:25;17.10;;;10.73;;
830;SDS011;397;50.564;7.272;2023-01-20T07:26:53;14.87;;;9.57;;
830;SDS011;397;50.564;7.272;2023-01-20T07:29:20;14.57;;;10.73;;
830;SDS011;397;50.564;7.272;2023-01-20T07:31:48;15.30;;;10.20;;
830;SDS011;397;50.564;7.272;2023-01-20T07:34:15;20.43;;;12.00;;
830;SDS011;397;50.564;7.272;2023-01-20T07:36:43;13.90;;;11.07;;
830;SDS011;397;50.564;7.272;2023-01-20T07:39:10;15.53;;;10.40;;
830;SDS011;397;50.564;7.272;2023-01-20T07:41:40;17.20;;;10.70;;
830;SDS011;397;50.564;7.272;2023-01-20T07:44:08;12.63;;;9.80;;
830;SDS011;397;50.564;7.272;2023-01-20T07:46:36;14.57;;;9.93;;
830;SDS011;397;50.564;7.272;2023-01-20T07:49:03;11.73;;;9.27;;
830;SDS011;397;50.564;7.272;2023-01-20T07:51:31;16.57;;;10.83;;
830;SDS011;397;50.564;7.272;2023-01-20T07:53:58;13.27;;;9.73;;
830;SDS011;397;50.564;7.272;2023-01-20T07:56:27;13.90;;;11.00;;
830;SDS011;397;50.564;7.272;2023-01-20T07:58:55;17.07;;;10.37;;
830;SDS011;397;50.564;7.272;2023-01-20T08:01:25;14.23;;;10.20;;
830;SDS011;397;50.564;7.272;2023-01-20T08:03:54;13.80;;;10.60;;
830;SDS011;397;50.564;7.272;2023-01-20T08:06:23;13.93;;;10.50;;
830;SDS011;397;50.564;7.272;2023-01-20T08:08:51;13.10;;;10.60;;
830;SDS011;397;50.564;7.272;2023-01-20T08:11:20;14.10;;;10.60;;
830;SDS011;397;50.564;7.272;2023-01-20T08:13:48;14.27;;;10.43;;
830;SDS011;397;50.564;7.272;2023-01-20T08:16:16;13.83;;;10.83;;
830;SDS011;397;50.564;7.272;2023-01-20T08:18:44;20.20;;;13.57;;
830;SDS011;397;50.564;7.272;2023-01-20T08:21:21;17.73;;;14.47;;
830;SDS011;397;50.564;7.272;2023-01-20T08:23:51;17.40;;;11.70;;
830;SDS011;397;50.564;7.272;2023-01-20T08:26:21;17.03;;;13.20;;
830;SDS011;397;50.564;7.272;2023-01-20T08:28:50;13.23;;;10.93;;
830;SDS011;397;50.564;7.272;2023-01-20T08:31:19;15.40;;;11.43;;
830;SDS011;397;50.564;7.272;2023-01-20T08:33:51;21.00;;;14.17;;
830;SDS011;397;50.564;7.272;2023-01-20T08:36:22;20.57;;;14.97;;
830;SDS011;397;50.564;7.272;2023-01-20T08:38:51;15.70;;;13.50;;
830;SDS011;397;50.564;7.272;2023-01-20T08:41:21;18.93;;;14.17;;
830;SDS011;397;50.564;7.272;2023-01-20T08:43:50;15.30;;;13.20;;
830;SDS011;397;50.564;7.272;2023-01-20T08:46:18;17.10;;;13.60;;
830;SDS011;397;50.564;7.272;2023-01-20T08:48:47;22.13;;;13.57;;
830;SDS011;397;50.564;7.272;2023-01-20T08:51:27;19.07;;;11.70;;
830;SDS011;397;50.564;7.272;2023-01-20T08:53:55;17.77;;;13.17;;
830;SDS011;397;50.564;7.272;2023-01-20T08:56:23;14.50;;;11.13;;
830;SDS011;397;50.564;7.272;2023-01-20T08:58:51;16.40;;;11.70;;
830;SDS011;397;50.564;7.272;2023-01-20T09:01:19;15.30;;;11.73;;
830;SDS011;397;50.564;7.272;2023-01-20T09:03:48;19.23;;;12.33;;
830;SDS011;397;50.564;7.272;2023-01-20T09:06:16;19.33;;;13.20;;
830;SDS011;397;50.564;7.272;2023-01-20T09:08:47;16.90;;;14.00;;
830;SDS011;397;50.564;7.272;2023-01-20T09:11:17;17.30;;;14.30;;
830;SDS011;397;50.564;7.272;2023-01-20T09:13:46;20.90;;;15.10;;
830;SDS011;397;50.564;7.272;2023-01-20T09:16:15;19.80;;;14.57;;
830;SDS011;397;50.564;7.272;2023-01-20T09:18:44;17.73;;;13.43;;
830;SDS011;397;50.564;7.272;2023-01-20T09:21:11;18.33;;;15.47;;
830;SDS011;397;50.564;7.272;2023-01-20T09:23:39;21.27;;;15.30;;
830;SDS011;397;50.564;7.272;2023-01-20T09:26:09;18.10;;;13.60;;
830;SDS011;397;50.564;7.272;2023-01-20T09:28:36;18.13;;;13.63;;
830;SDS011;397;50.564;7.272;2023-01-20T09:31:05;18.30;;;16.30;;
830;SDS011;397;50.564;7.272;2023-01-20T09:33:35;20.60;;;14.80;;
830;SDS011;397;50.564;7.272;2023-01-20T09:36:05;18.67;;;14.50;;
830;SDS011;397;50.564;7.272;2023-01-20T09:38:34;18.27;;;14.20;;
830;SDS011;397;50.564;7.272;2023-01-20T09:44:28;20.23;;;14.30;;
830;SDS011;397;50.564;7.272;2023-01-20T09:47:07;20.63;;;13.03;;
830;SDS011;397;50.564;7.272;2023-01-20T09:52:56;17.40;;;14.00;;
830;SDS011;397;50.564;7.272;2023-01-20T09:58:12;17.97;;;12.30;;
830;SDS011;397;50.564;7.272;2023-01-20T10:00:42;17.10;;;13.93;;
830;SDS011;397;50.564;7.272;2023-01-20T10:03:16;15.37;;;13.77;;
830;SDS011;397;50.564;7.272;2023-01-20T10:06:03;18.50;;;12.67;;
830;SDS011;397;50.564;7.272;2023-01-20T10:08:33;18.53;;;13.90;;
830;SDS011;397;50.564;7.272;2023-01-20T10:11:12;17.83;;;12.13;;
830;SDS011;397;50.564;7.272;2023-01-20T10:13:48;19.30;;;11.70;;
830;SDS011;397;50.564;7.272;2023-01-20T10:16:40;16.00;;;10.77;;
830;SDS011;397;50.564;7.272;2023-01-20T10:19:16;11.50;;;8.83;;
830;SDS011;397;50.564;7.272;2023-01-20T10:21:41;17.30;;;11.37;;
830;SDS011;397;50.564;7.272;2023-01-20T10:24:12;17.03;;;11.67;;
830;SDS011;397;50.564;7.272;2023-01-20T10:26:55;14.83;;;11.40;;
830;SDS011;397;50.564;7.272;2023-01-20T10:29:27;15.47;;;12.53;;
830;SDS011;397;50.564;7.272;2023-01-20T10:32:02;13.07;;;10.17;;
830;SDS011;397;50.564;7.272;2023-01-20T10:34:41;16.07;;;10.60;;
830;SDS011;397;50.564;7.272;2023-01-20T10:37:12;14.43;;;11.23;;
830;SDS011;397;50.564;7.272;2023-01-20T10:42:27;13.03;;;10.60;;
830;SDS011;397;50.564;7.272;2023-01-20T10:44:55;17.20;;;11.53;;
830;SDS011;397;50.564;7.272;2023-01-20T10:58:35;14.10;;;11.20;;
830;SDS011;397;50.564;7.272;2023-01-20T11:01:02;15.00;;;9.87;;
830;SDS011;397;50.564;7.272;2023-01-20T11:03:33;14.47;;;10.63;;
830;SDS011;397;50.564;7.272;2023-01-20T11:06:05;11.00;;;9.23;;
830;SDS011;397;50.564;7.272;2023-01-20T11:08:33;13.50;;;10.90;;
830;SDS011;397;50.564;7.272;2023-01-20T11:11:10;13.10;;;9.93;;
830;SDS011;397;50.564;7.272;2023-01-20T11:13:40;14.80;;;11.17;;
830;SDS011;397;50.564;7.272;2023-01-20T11:16:16;13.03;;;8.80;;
830;SDS011;397;50.564;7.272;2023-01-20T11:19:04;13.03;;;8.27;;
830;SDS011;397;50.564;7.272;2023-01-20T11:21:33;11.80;;;8.60;;
830;SDS011;397;50.564;7.272;2023-01-20T11:24:03;10.60;;;8.47;;
830;SDS011;397;50.564;7.272;2023-01-20T11:26:33;11.73;;;8.47;;
830;SDS011;397;50.564;7.272;2023-01-20T11:31:50;9.93;;;8.13;;
830;SDS011;397;50.564;7.272;2023-01-20T11:39:55;9.60;;;7.13;;
830;SDS011;397;50.564;7.272;2023-01-20T11:44:48;7.97;;;7.10;;
830;SDS011;397;50.564;7.272;2023-01-20T11:52:41;13.67;;;9.13;;
830;SDS011;397;50.564;7.272;2023-01-20T11:55:18;14.53;;;8.83;;
830;SDS011;397;50.564;7.272;2023-01-20T12:00:35;10.33;;;8.17;;
830;SDS011;397;50.564;7.272;2023-01-20T12:08:35;11.70;;;8.03;;
830;SDS011;397;50.564;7.272;2023-01-20T12:11:23;11.20;;;9.03;;
830;SDS011;397;50.564;7.272;2023-01-20T12:13:53;11.20;;;8.90;;
830;SDS011;397;50.564;7.272;2023-01-20T12:22:37;10.83;;;8.00;;
830;SDS011;397;50.564;7.272;2023-01-20T12:25:13;9.37;;;8.07;;
830;SDS011;397;50.564;7.272;2023-01-20T12:27:41;11.73;;;8.17;;
830;SDS011;397;50.564;7.272;2023-01-20T12:30:18;12.70;;;9.30;;
830;SDS011;397;50.564;7.272;2023-01-20T12:32:44;9.77;;;8.00;;
830;SDS011;397;50.564;7.272;2023-01-20T12:35:12;10.70;;;9.30;;
830;SDS011;397;50.564;7.272;2023-01-20T12:43:28;11.30;;;8.10;;
830;SDS011;397;50.564;7.272;2023-01-20T12:46:02;12.93;;;7.97;;
830;SDS011;397;50.564;7.272;2023-01-20T12:54:03;10.67;;;8.67;;
830;SDS011;397;50.564;7.272;2023-01-20T13:02:44;13.57;;;9.10;;
830;SDS011;397;50.564;7.272;2023-01-20T13:05:33;14.13;;;8.57;;
830;SDS011;397;50.564;7.272;2023-01-20T13:13:36;10.33;;;8.73;;
830;SDS011;397;50.564;7.272;2023-01-20T13:21:25;10.73;;;8.90;;
830;SDS011;397;50.564;7.272;2023-01-20T13:23:53;12.93;;;9.97;;
830;SDS011;397;50.564;7.272;2023-01-20T13:26:20;10.83;;;9.70;;
830;SDS011;397;50.564;7.272;2023-01-20T13:28:52;16.40;;;9.37;;
830;SDS011;397;50.564;7.272;2023-01-20T13:31:29;15.67;;;10.60;;
830;SDS011;397;50.564;7.272;2023-01-20T13:42:29;11.17;;;9.17;;
830;SDS011;397;50.564;7.272;2023-01-20T13:47:48;14.90;;;10.00;;
830;SDS011;397;50.564;7.272;2023-01-20T13:50:21;12.43;;;9.43;;
830;SDS011;397;50.564;7.272;2023-01-20T13:58:19;13.20;;;10.80;;
830;SDS011;397;50.564;7.272;2023-01-20T14:01:23;10.40;;;8.30;;
830;SDS011;397;50.564;7.272;2023-01-20T14:03:29;11.83;;;9.93;;
830;SDS011;397;50.564;7.272;2023-01-20T14:08:43;11.00;;;9.57;;
830;SDS011;397;50.564;7.272;2023-01-20T14:11:15;15.97;;;10.80;;
830;SDS011;397;50.564;7.272;2023-01-20T14:13:55;16.70;;;9.50;;
830;SDS011;397;50.564;7.272;2023-01-20T14:16:29;15.57;;;10.67;;
830;SDS011;397;50.564;7.272;2023-01-20T14:18:58;15.10;;;11.17;;
830;SDS011;397;50.564;7.272;2023-01-20T14:21:28;13.03;;;10.73;;
830;SDS011;397;50.564;7.272;2023-01-20T14:23:56;16.07;;;11.70;;
830;SDS011;397;50.564;7.272;2023-01-20T14:26:25;14.53;;;11.37;;
830;SDS011;397;50.564;7.272;2023-01-20T14:28:58;15.23;;;11.83;;
830;SDS011;397;50.564;7.272;2023-01-20T14:34:01;16.10;;;11.17;;
830;SDS011;397;50.564;7.272;2023-01-20T14:36:47;13.77;;;12.03;;
830;SDS011;397;50.564;7.272;2023-01-20T14:39:24;12.80;;;9.33;;
830;SDS011;397;50.564;7.272;2023-01-20T14:41:53;14.07;;;11.03;;
830;SDS011;397;50.564;7.272;2023-01-20T14:44:19;15.47;;;11.03;;
830;SDS011;397;50.564;7.272;2023-01-20T14:46:51;13.00;;;11.20;;
830;SDS011;397;50.564;7.272;2023-01-20T14:49:21;16.03;;;11.23;;
830;SDS011;397;50.564;7.272;2023-01-20T14:51:50;15.63;;;10.97;;
830;SDS011;397;50.564;7.272;2023-01-20T14:57:16;13.10;;;10.30;;
830;SDS011;397;50.564;7.272;2023-01-20T14:59:44;11.57;;;10.33;;
830;SDS011;397;50.564;7.272;2023-01-20T15:02:25;12.53;;;10.37;;
830;SDS011;397;50.564;7.272;2023-01-20T15:04:51;12.30;;;10.23;;
830;SDS011;397;50.564;7.272;2023-01-20T15:07:19;12.50;;;10.10;;
830;SDS011;397;50.564;7.272;2023-01-20T15:09:51;13.13;;;9.60;;
830;SDS011;397;50.564;7.272;2023-01-20T15:12:33;12.47;;;10.53;;
830;SDS011;397;50.564;7.272;2023-01-20T15:20:50;12.43;;;10.43;;
830;SDS011;397;50.564;7.272;2023-01-20T15:23:21;11.03;;;9.83;;
830;SDS011;397;50.564;7.272;2023-01-20T15:25:51;13.93;;;8.57;;
830;SDS011;397;50.564;7.272;2023-01-20T15:28:19;11.10;;;9.97;;
830;SDS011;397;50.564;7.272;2023-01-20T15:30:52;9.73;;;8.40;;
830;SDS011;397;50.564;7.272;2023-01-20T15:33:21;13.67;;;10.87;;
830;SDS011;397;50.564;7.272;2023-01-20T15:35:51;15.20;;;9.97;;
830;SDS011;397;50.564;7.272;2023-01-20T15:38:20;13.17;;;10.97;;
830;SDS011;397;50.564;7.272;2023-01-20T15:40:48;12.37;;;10.17;;
830;SDS011;397;50.564;7.272;2023-01-20T15:43:16;13.67;;;9.90;;
830;SDS011;397;50.564;7.272;2023-01-20T15:45:44;11.17;;;9.67;;
830;SDS011;397;50.564;7.272;2023-01-20T15:48:13;11.97;;;10.50;;
830;SDS011;397;50.564;7.272;2023-01-20T15:50:42;9.40;;;7.80;;
830;SDS011;397;50.564;7.272;2023-01-20T15:53:10;10.10;;;7.30;;
830;SDS011;397;50.564;7.272;2023-01-20T15:55:49;9.20;;;7.07;;
830;SDS011;397;50.564;7.272;2023-01-20T15:58:20;9.47;;;6.93;;
830;SDS011;397;50.564;7.272;2023-01-20T16:00:50;7.20;;;6.30;;
830;SDS011;397;50.564;7.272;2023-01-20T16:03:19;7.90;;;6.40;;
830;SDS011;397;50.564;7.272;2023-01-20T16:05:48;10.20;;;6.80;;
830;SDS011;397;50.564;7.272;2023-01-20T16:08:18;6.20;;;5.20;;
830;SDS011;397;50.564;7.272;2023-01-20T16:10:47;7.70;;;4.83;;
830;SDS011;397;50.564;7.272;2023-01-20T16:13:15;8.00;;;5.10;;
830;SDS011;397;50.564;7.272;2023-01-20T16:15:42;6.83;;;5.40;;
830;SDS011;397;50.564;7.272;2023-01-20T16:18:14;6.77;;;4.87;;
830;SDS011;397;50.564;7.272;2023-01-20T16:20:44;5.83;;;4.30;;
830;SDS011;397;50.564;7.272;2023-01-20T16:23:13;6.00;;;5.07;;
830;SDS011;397;50.564;7.272;2023-01-20T16:25:40;5.90;;;4.20;;
830;SDS011;397;50.564;7.272;2023-01-20T16:28:15;5.70;;;4.67;;
830;SDS011;397;50.564;7.272;2023-01-20T16:30:46;6.03;;;4.77;;
830;SDS011;397;50.564;7.272;2023-01-20T16:33:15;5.30;;;4.50;;
830;SDS011;397;50.564;7.272;2023-01-20T16:35:44;6.90;;;5.10;;
830;SDS011;397;50.564;7.272;2023-01-20T16:38:13;5.53;;;4.90;;
830;SDS011;397;50.564;7.272;2023-01-20T16:40:44;5.97;;;4.67;;
830;SDS011;397;50.564;7.272;2023-01-20T16:43:13;6.20;;;5.10;;
830;SDS011;397;50.564;7.272;2023-01-20T16:45:42;6.63;;;5.97;;
830;SDS011;397;50.564;7.272;2023-01-20T16:48:11;6.17;;;4.90;;
830;SDS011;397;50.564;7.272;2023-01-20T16:50:39;6.30;;;5.50;;
830;SDS011;397;50.564;7.272;2023-01-20T16:53:06;6.23;;;5.10;;
830;SDS011;397;50.564;7.272;2023-01-20T16:55:35;5.70;;;4.73;;
830;SDS011;397;50.564;7.272;2023-01-20T16:58:02;6.23;;;5.40;;
830;SDS011;397;50.564;7.272;2023-01-20T17:00:31;5.80;;;4.93;;
830;SDS011;397;50.564;7.272;2023-01-20T17:02:59;5.83;;;4.80;;
830;SDS011;397;50.564;7.272;2023-01-20T17:05:27;6.17;;;4.67;;
830;SDS011;397;50.564;7.272;2023-01-20T17:07:55;6.60;;;5.90;;
830;SDS011;397;50.564;7.272;2023-01-20T17:10:24;8.53;;;4.97;;
830;SDS011;397;50.564;7.272;2023-01-20T17:12:54;8.53;;;6.70;;
830;SDS011;397;50.564;7.272;2023-01-20T17:15:22;8.33;;;6.10;;
830;SDS011;397;50.564;7.272;2023-01-20T17:17:51;8.00;;;6.00;;
830;SDS011;397;50.564;7.272;2023-01-20T17:20:21;5.57;;;4.90;;
830;SDS011;397;50.564;7.272;2023-01-20T17:22:51;8.87;;;4.80;;
830;SDS011;397;50.564;7.272;2023-01-20T17:25:21;7.03;;;6.33;;
830;SDS011;397;50.564;7.272;2023-01-20T17:27:48;8.30;;;7.27;;
830;SDS011;397;50.564;7.272;2023-01-20T17:30:16;7.60;;;6.77;;
830;SDS011;397;50.564;7.272;2023-01-20T17:32:44;9.60;;;7.47;;
830;SDS011;397;50.564;7.272;2023-01-20T17:35:13;9.43;;;8.00;;
830;SDS011;397;50.564;7.272;2023-01-20T17:37:42;7.93;;;7.13;;
830;SDS011;397;50.564;7.272;2023-01-20T17:40:10;9.20;;;7.73;;
830;SDS011;397;50.564;7.272;2023-01-20T17:42:39;9.67;;;7.37;;
830;SDS011;397;50.564;7.272;2023-01-20T17:45:08;9.30;;;7.80;;
830;SDS011;397;50.564;7.272;2023-01-20T17:47:36;9.27;;;7.67;;
830;SDS011;397;50.564;7.272;2023-01-20T17:50:04;8.20;;;7.40;;
830;SDS011;397;50.564;7.272;2023-01-20T17:52:31;9.23;;;7.43;;
830;SDS011;397;50.564;7.272;2023-01-20T17:54:59;9.97;;;8.53;;
830;SDS011;397;50.564;7.272;2023-01-20T17:57:26;9.30;;;8.30;;